sensor_id;sensor_type;location;lat;lon;timestamp;noise_LAeq;noise_LA_min;noise_LA_max;noise_LA01;noise_LA95
11999;Laerm;40817;51.520;9.954;2023-03-12T00:01:21;42.58;38.37;46.59;;
11999;Laerm;40817;51.520;9.954;2023-03-12T00:03:50;42.85;39.34;45.83;;
11999;Laerm;40817;51.520;9.954;2023-03-12T00:06:20;42.53;39.34;45.04;;
11999;Laerm;40817;51.520;9.954;2023-03-12T00:08:48;43.25;39.46;52.57;;
11999;Laerm;40817;51.520;9.954;2023-03-12T00:11:18;43.96;39.46;53.90;;
11999;Laerm;40817;51.520;9.954;2023-03-12T00:13:49;43.16;37.70;45.86;;
11999;Laerm;40817;51.520;9.954;2023-03-12T00:16:19;44.10;40.33;47.08;;
11999;Laerm;40817;51.520;9.954;2023-03-12T00:18:48;44.05;39.46;52.11;;
11999;Laerm;40817;51.520;9.954;2023-03-12T00:21:17;43.89;40.79;50.03;;
11999;Laerm;40817;51.520;9.954;2023-03-12T00:23:46;42.63;36.69;45.27;;
11999;Laerm;40817;51.520;9.954;2023-03-12T00:26:16;42.67;39.21;45.01;;
11999;Laerm;40817;51.520;9.954;2023-03-12T00:28:46;43.54;39.46;48.23;;
11999;Laerm;40817;51.520;9.954;2023-03-12T00:31:18;43.93;40.13;46.35;;
11999;Laerm;40817;51.520;9.954;2023-03-12T00:33:46;43.33;39.46;46.28;;
11999;Laerm;40817;51.520;9.954;2023-03-12T00:36:16;42.95;39.46;45.63;;
11999;Laerm;40817;51.520;9.954;2023-03-12T00:38:44;43.84;40.13;46.10;;
11999;Laerm;40817;51.520;9.954;2023-03-12T00:41:12;43.56;39.58;46.52;;
11999;Laerm;40817;51.520;9.954;2023-03-12T00:43:39;43.72;39.34;51.65;;
11999;Laerm;40817;51.520;9.954;2023-03-12T00:46:07;42.82;38.05;46.52;;
11999;Laerm;40817;51.520;9.954;2023-03-12T00:48:35;42.18;38.67;44.62;;
11999;Laerm;40817;51.520;9.954;2023-03-12T00:51:04;42.47;39.08;61.74;;
11999;Laerm;40817;51.520;9.954;2023-03-12T00:53:31;42.40;38.37;45.17;;
11999;Laerm;40817;51.520;9.954;2023-03-12T00:55:59;57.69;38.37;92.44;;
11999;Laerm;40817;51.520;9.954;2023-03-12T00:58:26;42.57;39.21;44.90;;
11999;Laerm;40817;51.520;9.954;2023-03-12T01:00:54;43.13;38.81;45.72;;
11999;Laerm;40817;51.520;9.954;2023-03-12T01:03:21;42.60;38.95;44.80;;
11999;Laerm;40817;51.520;9.954;2023-03-12T01:05:50;43.57;38.95;47.40;;
11999;Laerm;40817;51.520;9.954;2023-03-12T01:08:21;43.03;38.52;45.42;;
11999;Laerm;40817;51.520;9.954;2023-03-12T01:10:49;42.96;39.34;45.45;;
11999;Laerm;40817;51.520;9.954;2023-03-12T01:13:16;43.81;39.70;48.95;;
11999;Laerm;40817;51.520;9.954;2023-03-12T01:15:44;42.95;38.37;47.79;;
11999;Laerm;40817;51.520;9.954;2023-03-12T01:18:12;43.13;38.81;45.42;;
11999;Laerm;40817;51.520;9.954;2023-03-12T01:20:40;41.85;38.05;45.27;;
11999;Laerm;40817;51.520;9.954;2023-03-12T01:23:09;42.73;38.05;51.37;;
11999;Laerm;40817;51.520;9.954;2023-03-12T01:25:37;41.96;37.70;44.94;;
11999;Laerm;40817;51.520;9.954;2023-03-12T01:28:05;43.84;39.70;52.89;;
11999;Laerm;40817;51.520;9.954;2023-03-12T01:30:32;43.77;40.13;52.39;;
11999;Laerm;40817;51.520;9.954;2023-03-12T01:33:00;43.50;39.08;50.69;;
11999;Laerm;40817;51.520;9.954;2023-03-12T01:35:27;43.10;39.21;45.04;;
11999;Laerm;40817;51.520;9.954;2023-03-12T01:37:55;44.07;40.62;47.08;;
11999;Laerm;40817;51.520;9.954;2023-03-12T01:40:24;42.95;39.08;45.60;;
11999;Laerm;40817;51.520;9.954;2023-03-12T01:42:56;43.95;40.03;59.67;;
11999;Laerm;40817;51.520;9.954;2023-03-12T01:46:03;43.03;39.34;45.75;;
11999;Laerm;40817;51.520;9.954;2023-03-12T01:48:38;43.32;39.34;60.35;;
11999;Laerm;40817;51.520;9.954;2023-03-12T01:51:08;44.70;42.16;50.98;;
11999;Laerm;40817;51.520;9.954;2023-03-12T01:53:37;43.31;38.81;55.53;;
11999;Laerm;40817;51.520;9.954;2023-03-12T01:56:21;42.53;38.81;60.27;;
11999;Laerm;40817;51.520;9.954;2023-03-12T01:58:59;42.36;38.05;58.36;;
11999;Laerm;40817;51.520;9.954;2023-03-12T02:01:29;42.64;38.67;49.90;;
11999;Laerm;40817;51.520;9.954;2023-03-12T02:03:59;42.12;38.05;52.17;;
11999;Laerm;40817;51.520;9.954;2023-03-12T02:06:36;42.57;38.52;56.46;;
11999;Laerm;40817;51.520;9.954;2023-03-12T02:09:06;42.46;38.52;46.07;;
11999;Laerm;40817;51.520;9.954;2023-03-12T02:11:35;42.92;38.47;46.80;;
11999;Laerm;40817;51.520;9.954;2023-03-12T02:14:02;42.46;38.21;53.77;;
11999;Laerm;40817;51.520;9.954;2023-03-12T02:16:30;42.49;37.70;56.42;;
11999;Laerm;40817;51.520;9.954;2023-03-12T02:19:00;42.23;37.88;53.16;;
11999;Laerm;40817;51.520;9.954;2023-03-12T02:21:30;43.38;39.08;49.53;;
11999;Laerm;40817;51.520;9.954;2023-03-12T02:24:07;43.55;38.37;50.84;;
11999;Laerm;40817;51.520;9.954;2023-03-12T02:26:41;42.38;37.32;46.93;;
11999;Laerm;40817;51.520;9.954;2023-03-12T02:29:09;42.59;38.95;45.04;;
11999;Laerm;40817;51.520;9.954;2023-03-12T02:31:43;42.93;39.08;47.06;;
11999;Laerm;40817;51.520;9.954;2023-03-12T02:34:12;42.62;37.32;52.02;;
11999;Laerm;40817;51.520;9.954;2023-03-12T02:36:39;42.29;38.05;47.02;;
11999;Laerm;40817;51.520;9.954;2023-03-12T02:39:09;42.35;38.05;48.63;;
11999;Laerm;40817;51.520;9.954;2023-03-12T02:41:40;43.72;38.95;46.15;;
11999;Laerm;40817;51.520;9.954;2023-03-12T02:44:15;43.59;39.70;47.09;;
11999;Laerm;40817;51.520;9.954;2023-03-12T02:46:47;42.81;38.37;45.66;;
11999;Laerm;40817;51.520;9.954;2023-03-12T02:49:17;42.86;38.21;53.59;;
11999;Laerm;40817;51.520;9.954;2023-03-12T02:51:47;42.59;38.05;45.07;;
11999;Laerm;40817;51.520;9.954;2023-03-12T02:54:17;42.51;37.88;46.13;;
11999;Laerm;40817;51.520;9.954;2023-03-12T02:56:47;42.24;37.12;44.62;;
11999;Laerm;40817;51.520;9.954;2023-03-12T02:59:15;42.11;37.88;44.94;;
11999;Laerm;40817;51.520;9.954;2023-03-12T03:01:43;42.64;38.95;45.04;;
11999;Laerm;40817;51.520;9.954;2023-03-12T03:04:12;41.74;38.05;44.35;;
11999;Laerm;40817;51.520;9.954;2023-03-12T03:06:41;42.29;37.88;44.62;;
11999;Laerm;40817;51.520;9.954;2023-03-12T03:09:10;42.62;38.37;45.01;;
11999;Laerm;40817;51.520;9.954;2023-03-12T03:11:37;41.18;36.45;52.19;;
11999;Laerm;40817;51.520;9.954;2023-03-12T03:14:06;43.25;36.91;59.21;;
11999;Laerm;40817;51.520;9.954;2023-03-12T03:16:35;47.57;38.95;60.29;;
11999;Laerm;40817;51.520;9.954;2023-03-12T03:19:04;42.05;38.21;45.99;;
11999;Laerm;40817;51.520;9.954;2023-03-12T03:21:32;41.99;36.20;57.52;;
11999;Laerm;40817;51.520;9.954;2023-03-12T03:24:00;41.69;37.88;44.39;;
11999;Laerm;40817;51.520;9.954;2023-03-12T03:26:27;41.65;37.53;44.27;;
11999;Laerm;40817;51.520;9.954;2023-03-12T03:28:55;42.25;38.05;45.89;;
11999;Laerm;40817;51.520;9.954;2023-03-12T03:31:24;42.50;38.52;45.04;;
11999;Laerm;40817;51.520;9.954;2023-03-12T03:34:11;42.41;38.37;54.14;;
11999;Laerm;40817;51.520;9.954;2023-03-12T03:36:38;42.28;38.05;52.46;;
11999;Laerm;40817;51.520;9.954;2023-03-12T03:39:06;42.58;38.81;44.83;;
11999;Laerm;40817;51.520;9.954;2023-03-12T03:41:34;42.68;37.88;44.69;;
11999;Laerm;40817;51.520;9.954;2023-03-12T03:44:02;42.79;38.95;44.80;;
11999;Laerm;40817;51.520;9.954;2023-03-12T03:46:34;48.05;38.37;79.42;;
11999;Laerm;40817;51.520;9.954;2023-03-12T03:49:02;42.43;38.05;44.58;;
11999;Laerm;40817;51.520;9.954;2023-03-12T03:51:30;42.59;37.12;45.66;;
11999;Laerm;40817;51.520;9.954;2023-03-12T03:53:58;42.51;38.81;44.83;;
11999;Laerm;40817;51.520;9.954;2023-03-12T03:56:26;42.36;38.52;44.54;;
11999;Laerm;40817;51.520;9.954;2023-03-12T03:58:54;42.25;38.21;44.80;;
11999;Laerm;40817;51.520;9.954;2023-03-12T04:01:21;42.68;39.08;45.48;;
11999;Laerm;40817;51.520;9.954;2023-03-12T04:04:10;42.83;38.95;44.94;;
11999;Laerm;40817;51.520;9.954;2023-03-12T04:06:58;42.31;39.08;44.47;;
11999;Laerm;40817;51.520;9.954;2023-03-12T04:09:27;42.40;39.08;45.72;;
11999;Laerm;40817;51.520;9.954;2023-03-12T04:11:55;43.34;39.34;45.77;;
11999;Laerm;40817;51.520;9.954;2023-03-12T04:14:23;43.12;39.34;45.45;;
11999;Laerm;40817;51.520;9.954;2023-03-12T04:16:50;42.66;37.87;45.63;;
11999;Laerm;40817;51.520;9.954;2023-03-12T04:19:19;42.45;38.81;44.51;;
11999;Laerm;40817;51.520;9.954;2023-03-12T04:21:47;42.57;38.67;44.79;;
11999;Laerm;40817;51.520;9.954;2023-03-12T04:24:16;42.69;39.21;45.23;;
11999;Laerm;40817;51.520;9.954;2023-03-12T04:26:45;43.02;38.52;45.80;;
11999;Laerm;40817;51.520;9.954;2023-03-12T04:29:13;42.71;39.08;44.83;;
11999;Laerm;40817;51.520;9.954;2023-03-12T04:31:41;42.85;38.52;45.11;;
11999;Laerm;40817;51.520;9.954;2023-03-12T04:34:08;42.95;39.21;45.30;;
11999;Laerm;40817;51.520;9.954;2023-03-12T04:36:37;43.05;39.58;45.42;;
11999;Laerm;40817;51.520;9.954;2023-03-12T04:39:05;43.38;37.70;47.18;;
11999;Laerm;40817;51.520;9.954;2023-03-12T04:41:34;44.81;40.89;54.33;;
11999;Laerm;40817;51.520;9.954;2023-03-12T04:44:03;43.55;38.95;50.02;;
11999;Laerm;40817;51.520;9.954;2023-03-12T04:46:31;42.69;38.95;46.95;;
11999;Laerm;40817;51.520;9.954;2023-03-12T04:48:58;43.12;38.67;46.33;;
11999;Laerm;40817;51.520;9.954;2023-03-12T04:51:28;42.83;39.58;45.04;;
11999;Laerm;40817;51.520;9.954;2023-03-12T04:53:57;43.76;39.81;48.42;;
11999;Laerm;40817;51.520;9.954;2023-03-12T04:56:25;42.74;38.05;47.61;;
11999;Laerm;40817;51.520;9.954;2023-03-12T04:58:53;43.15;39.81;53.91;;
11999;Laerm;40817;51.520;9.954;2023-03-12T05:01:26;43.93;40.13;51.56;;
11999;Laerm;40817;51.520;9.954;2023-03-12T05:03:55;45.82;40.98;55.12;;
11999;Laerm;40817;51.520;9.954;2023-03-12T05:06:24;43.49;40.13;55.01;;
11999;Laerm;40817;51.520;9.954;2023-03-12T05:08:52;43.26;39.46;55.15;;
11999;Laerm;40817;51.520;9.954;2023-03-12T05:11:22;43.83;38.21;65.51;;
11999;Laerm;40817;51.520;9.954;2023-03-12T05:13:50;43.70;40.23;51.66;;
11999;Laerm;40817;51.520;9.954;2023-03-12T05:16:18;42.95;39.21;55.67;;
11999;Laerm;40817;51.520;9.954;2023-03-12T05:18:45;42.46;38.95;47.30;;
11999;Laerm;40817;51.520;9.954;2023-03-12T05:21:16;42.83;38.81;45.83;;
11999;Laerm;40817;51.520;9.954;2023-03-12T05:23:44;43.79;39.11;57.15;;
11999;Laerm;40817;51.520;9.954;2023-03-12T05:26:18;42.75;39.21;54.91;;
11999;Laerm;40817;51.520;9.954;2023-03-12T05:28:47;42.49;39.58;46.73;;
11999;Laerm;40817;51.520;9.954;2023-03-12T05:31:16;45.74;39.81;69.17;;
11999;Laerm;40817;51.520;9.954;2023-03-12T05:33:54;44.00;39.70;53.46;;
11999;Laerm;40817;51.520;9.954;2023-03-12T05:36:21;43.12;39.70;46.73;;
11999;Laerm;40817;51.520;9.954;2023-03-12T05:38:49;43.01;38.67;46.30;;
11999;Laerm;40817;51.520;9.954;2023-03-12T05:41:21;42.99;39.46;48.69;;
11999;Laerm;40817;51.520;9.954;2023-03-12T05:43:51;43.97;41.14;54.03;;
11999;Laerm;40817;51.520;9.954;2023-03-12T05:46:20;46.03;41.30;61.94;;
11999;Laerm;40817;51.520;9.954;2023-03-12T05:48:48;43.73;40.53;47.61;;
11999;Laerm;40817;51.520;9.954;2023-03-12T05:51:16;44.51;41.22;55.49;;
11999;Laerm;40817;51.520;9.954;2023-03-12T05:53:43;43.96;40.53;56.13;;
11999;Laerm;40817;51.520;9.954;2023-03-12T05:56:14;43.67;40.71;53.70;;
11999;Laerm;40817;51.520;9.954;2023-03-12T05:58:43;43.30;40.13;45.72;;
11999;Laerm;40817;51.520;9.954;2023-03-12T06:01:19;43.62;40.43;50.85;;
11999;Laerm;40817;51.520;9.954;2023-03-12T06:03:48;43.07;40.23;48.77;;
11999;Laerm;40817;51.520;9.954;2023-03-12T06:06:16;44.59;40.23;60.39;;
11999;Laerm;40817;51.520;9.954;2023-03-12T06:08:45;44.63;40.71;56.74;;
11999;Laerm;40817;51.520;9.954;2023-03-12T06:11:13;44.13;40.62;55.84;;
11999;Laerm;40817;51.520;9.954;2023-03-12T06:13:42;44.11;39.92;56.76;;
11999;Laerm;40817;51.520;9.954;2023-03-12T06:16:16;46.27;40.53;58.01;;
11999;Laerm;40817;51.520;9.954;2023-03-12T06:18:44;43.80;40.89;49.75;;
11999;Laerm;40817;51.520;9.954;2023-03-12T06:21:15;43.44;39.46;47.04;;
11999;Laerm;40817;51.520;9.954;2023-03-12T06:23:44;42.91;38.95;47.83;;
11999;Laerm;40817;51.520;9.954;2023-03-12T06:26:14;44.94;40.33;58.48;;
11999;Laerm;40817;51.520;9.954;2023-03-12T06:28:43;43.98;39.70;54.12;;
11999;Laerm;40817;51.520;9.954;2023-03-12T06:31:11;43.19;39.81;48.20;;
11999;Laerm;40817;51.520;9.954;2023-03-12T06:33:40;43.96;41.06;49.89;;
11999;Laerm;40817;51.520;9.954;2023-03-12T06:36:09;43.79;40.43;54.94;;
11999;Laerm;40817;51.520;9.954;2023-03-12T06:38:38;43.72;40.03;51.41;;
11999;Laerm;40817;51.520;9.954;2023-03-12T06:41:10;43.08;39.70;49.16;;
11999;Laerm;40817;51.520;9.954;2023-03-12T06:43:41;42.91;39.92;49.11;;
11999;Laerm;40817;51.520;9.954;2023-03-12T06:46:13;42.94;39.46;47.86;;
11999;Laerm;40817;51.520;9.954;2023-03-12T06:48:43;44.60;40.43;53.70;;
11999;Laerm;40817;51.520;9.954;2023-03-12T06:51:14;44.17;40.98;52.60;;
11999;Laerm;40817;51.520;9.954;2023-03-12T06:53:42;43.33;40.13;46.45;;
11999;Laerm;40817;51.520;9.954;2023-03-12T06:56:11;43.14;40.23;48.64;;
11999;Laerm;40817;51.520;9.954;2023-03-12T06:58:43;46.10;40.13;63.83;;
11999;Laerm;40817;51.520;9.954;2023-03-12T07:01:16;46.11;40.03;69.18;;
11999;Laerm;40817;51.520;9.954;2023-03-12T07:03:45;43.52;39.08;55.90;;
11999;Laerm;40817;51.520;9.954;2023-03-12T07:06:14;44.86;40.80;53.42;;
11999;Laerm;40817;51.520;9.954;2023-03-12T07:08:43;43.49;40.71;53.40;;
11999;Laerm;40817;51.520;9.954;2023-03-12T07:11:12;43.06;39.58;55.21;;
11999;Laerm;40817;51.520;9.954;2023-03-12T07:13:40;43.80;40.13;58.54;;
11999;Laerm;40817;51.520;9.954;2023-03-12T07:16:25;44.30;40.33;58.30;;
11999;Laerm;40817;51.520;9.954;2023-03-12T07:19:06;43.57;39.46;59.39;;
11999;Laerm;40817;51.520;9.954;2023-03-12T07:21:41;44.13;41.30;60.30;;
11999;Laerm;40817;51.520;9.954;2023-03-12T07:24:32;43.58;40.03;50.47;;
11999;Laerm;40817;51.520;9.954;2023-03-12T07:27:20;43.59;40.33;45.57;;
11999;Laerm;40817;51.520;9.954;2023-03-12T07:30:03;44.04;40.23;50.25;;
11999;Laerm;40817;51.520;9.954;2023-03-12T07:32:41;44.28;41.14;52.88;;
11999;Laerm;40817;51.520;9.954;2023-03-12T07:35:21;44.50;39.99;52.75;;
11999;Laerm;40817;51.520;9.954;2023-03-12T07:37:49;45.04;41.46;52.34;;
11999;Laerm;40817;51.520;9.954;2023-03-12T07:40:17;44.19;40.43;50.17;;
11999;Laerm;40817;51.520;9.954;2023-03-12T07:42:50;44.29;41.38;50.13;;
11999;Laerm;40817;51.520;9.954;2023-03-12T07:45:18;44.05;41.46;50.24;;
11999;Laerm;40817;51.520;9.954;2023-03-12T07:47:46;43.94;40.80;55.08;;
11999;Laerm;40817;51.520;9.954;2023-03-12T07:50:16;45.01;40.98;66.91;;
11999;Laerm;40817;51.520;9.954;2023-03-12T07:52:45;43.44;40.71;46.84;;
11999;Laerm;40817;51.520;9.954;2023-03-12T07:55:13;43.52;40.62;57.88;;
11999;Laerm;40817;51.520;9.954;2023-03-12T07:57:41;46.61;39.92;72.25;;
11999;Laerm;40817;51.520;9.954;2023-03-12T08:00:11;45.99;39.92;67.52;;
11999;Laerm;40817;51.520;9.954;2023-03-12T08:02:39;44.06;40.71;58.78;;
11999;Laerm;40817;51.520;9.954;2023-03-12T08:05:08;43.77;40.71;50.41;;
11999;Laerm;40817;51.520;9.954;2023-03-12T08:07:37;43.25;40.23;49.51;;
11999;Laerm;40817;51.520;9.954;2023-03-12T08:10:08;43.83;40.33;51.77;;
11999;Laerm;40817;51.520;9.954;2023-03-12T08:12:37;44.36;41.06;53.60;;
11999;Laerm;40817;51.520;9.954;2023-03-12T08:15:06;44.32;40.23;52.77;;
11999;Laerm;40817;51.520;9.954;2023-03-12T08:17:35;49.80;42.82;60.78;;
11999;Laerm;40817;51.520;9.954;2023-03-12T08:20:04;51.26;43.14;65.90;;
11999;Laerm;40817;51.520;9.954;2023-03-12T08:22:36;44.71;37.88;56.02;;
11999;Laerm;40817;51.520;9.954;2023-03-12T08:25:05;43.61;40.13;47.81;;
11999;Laerm;40817;51.520;9.954;2023-03-12T08:27:34;45.27;40.33;63.11;;
11999;Laerm;40817;51.520;9.954;2023-03-12T08:30:03;45.83;40.88;62.60;;
11999;Laerm;40817;51.520;9.954;2023-03-12T08:32:35;52.92;44.39;72.31;;
11999;Laerm;40817;51.520;9.954;2023-03-12T08:35:05;45.67;40.43;62.36;;
11999;Laerm;40817;51.520;9.954;2023-03-12T08:37:33;43.18;40.23;54.42;;
11999;Laerm;40817;51.520;9.954;2023-03-12T08:40:07;43.38;40.80;54.33;;
11999;Laerm;40817;51.520;9.954;2023-03-12T08:42:38;43.47;40.43;45.91;;
11999;Laerm;40817;51.520;9.954;2023-03-12T08:45:08;43.95;40.89;50.37;;
11999;Laerm;40817;51.520;9.954;2023-03-12T08:47:38;43.24;38.21;49.58;;
11999;Laerm;40817;51.520;9.954;2023-03-12T08:50:09;43.62;40.03;55.91;;
11999;Laerm;40817;51.520;9.954;2023-03-12T08:52:38;44.16;41.14;51.20;;
11999;Laerm;40817;51.520;9.954;2023-03-12T08:55:10;46.75;42.09;59.75;;
11999;Laerm;40817;51.520;9.954;2023-03-12T08:57:38;55.08;46.95;63.82;;
11999;Laerm;40817;51.520;9.954;2023-03-12T09:00:11;55.23;42.41;63.61;;
11999;Laerm;40817;51.520;9.954;2023-03-12T09:02:43;43.66;40.43;46.62;;
11999;Laerm;40817;51.520;9.954;2023-03-12T09:05:11;43.68;40.63;58.09;;
11999;Laerm;40817;51.520;9.954;2023-03-12T09:07:39;46.91;40.23;62.82;;
11999;Laerm;40817;51.520;9.954;2023-03-12T09:10:10;44.07;40.71;56.94;;
11999;Laerm;40817;51.520;9.954;2023-03-12T09:12:37;44.06;41.75;53.00;;
11999;Laerm;40817;51.520;9.954;2023-03-12T09:15:07;44.93;40.98;55.73;;
11999;Laerm;40817;51.520;9.954;2023-03-12T09:17:35;44.06;41.53;46.87;;
11999;Laerm;40817;51.520;9.954;2023-03-12T09:20:06;43.70;40.71;51.82;;
11999;Laerm;40817;51.520;9.954;2023-03-12T09:22:40;44.60;40.80;54.16;;
11999;Laerm;40817;51.520;9.954;2023-03-12T09:25:10;44.28;40.80;51.82;;
11999;Laerm;40817;51.520;9.954;2023-03-12T09:27:40;44.02;41.38;52.31;;
11999;Laerm;40817;51.520;9.954;2023-03-12T09:30:12;44.35;41.38;60.95;;
11999;Laerm;40817;51.520;9.954;2023-03-12T09:32:40;44.65;40.71;54.66;;
11999;Laerm;40817;51.520;9.954;2023-03-12T09:35:10;44.63;41.14;56.05;;
11999;Laerm;40817;51.520;9.954;2023-03-12T09:37:38;44.33;41.61;58.17;;
11999;Laerm;40817;51.520;9.954;2023-03-12T09:40:11;44.76;41.30;51.87;;
11999;Laerm;40817;51.520;9.954;2023-03-12T09:42:56;44.23;41.38;51.42;;
11999;Laerm;40817;51.520;9.954;2023-03-12T09:45:34;44.28;40.03;54.75;;
11999;Laerm;40817;51.520;9.954;2023-03-12T09:48:05;47.27;41.53;60.72;;
11999;Laerm;40817;51.520;9.954;2023-03-12T09:50:45;44.19;41.14;53.15;;
11999;Laerm;40817;51.520;9.954;2023-03-12T09:53:25;49.16;40.80;64.94;;
11999;Laerm;40817;51.520;9.954;2023-03-12T09:55:58;44.72;39.46;55.74;;
11999;Laerm;40817;51.520;9.954;2023-03-12T09:58:29;43.84;40.89;52.00;;
11999;Laerm;40817;51.520;9.954;2023-03-12T10:01:08;43.94;40.98;48.99;;
11999;Laerm;40817;51.520;9.954;2023-03-12T10:04:19;43.63;40.43;53.94;;
11999;Laerm;40817;51.520;9.954;2023-03-12T10:06:58;43.45;39.21;49.88;;
11999;Laerm;40817;51.520;9.954;2023-03-12T10:12:55;44.03;40.62;56.73;;
11999;Laerm;40817;51.520;9.954;2023-03-12T10:15:42;44.04;41.22;51.17;;
11999;Laerm;40817;51.520;9.954;2023-03-12T10:18:28;44.00;41.14;53.75;;
11999;Laerm;40817;51.520;9.954;2023-03-12T10:21:13;44.18;40.62;55.99;;
11999;Laerm;40817;51.520;9.954;2023-03-12T10:24:06;44.08;41.46;54.89;;
11999;Laerm;40817;51.520;9.954;2023-03-12T10:26:39;45.23;40.43;58.56;;
11999;Laerm;40817;51.520;9.954;2023-03-12T10:29:16;44.62;40.33;58.55;;
11999;Laerm;40817;51.520;9.954;2023-03-12T10:31:53;43.87;41.06;54.39;;
11999;Laerm;40817;51.520;9.954;2023-03-12T10:34:29;43.44;40.80;50.27;;
11999;Laerm;40817;51.520;9.954;2023-03-12T10:37:05;43.24;40.23;47.34;;
11999;Laerm;40817;51.520;9.954;2023-03-12T10:39:39;46.53;40.43;64.83;;
11999;Laerm;40817;51.520;9.954;2023-03-12T10:42:16;44.66;40.98;54.43;;
11999;Laerm;40817;51.520;9.954;2023-03-12T10:44:51;43.36;40.62;51.13;;
11999;Laerm;40817;51.520;9.954;2023-03-12T10:47:39;50.66;40.33;65.08;;
11999;Laerm;40817;51.520;9.954;2023-03-12T10:50:17;51.47;43.58;65.70;;
11999;Laerm;40817;51.520;9.954;2023-03-12T10:52:48;46.21;40.80;59.78;;
11999;Laerm;40817;51.520;9.954;2023-03-12T10:55:23;56.63;40.43;79.00;;
11999;Laerm;40817;51.520;9.954;2023-03-12T10:57:53;55.69;40.43;67.18;;
11999;Laerm;40817;51.520;9.954;2023-03-12T11:00:25;47.18;40.23;60.11;;
11999;Laerm;40817;51.520;9.954;2023-03-12T11:02:59;55.52;41.82;64.15;;
11999;Laerm;40817;51.520;9.954;2023-03-12T11:05:32;43.36;40.53;51.63;;
11999;Laerm;40817;51.520;9.954;2023-03-12T11:08:02;43.32;40.62;53.64;;
11999;Laerm;40817;51.520;9.954;2023-03-12T11:10:43;43.66;40.80;54.15;;
11999;Laerm;40817;51.520;9.954;2023-03-12T11:13:27;44.76;40.89;56.58;;
11999;Laerm;40817;51.520;9.954;2023-03-12T11:15:58;44.42;40.13;62.41;;
11999;Laerm;40817;51.520;9.954;2023-03-12T11:18:33;44.99;40.80;56.33;;
11999;Laerm;40817;51.520;9.954;2023-03-12T11:21:18;46.19;41.38;58.83;;
11999;Laerm;40817;51.520;9.954;2023-03-12T11:24:06;43.20;40.43;52.84;;
11999;Laerm;40817;51.520;9.954;2023-03-12T11:27:01;43.80;40.80;55.80;;
11999;Laerm;40817;51.520;9.954;2023-03-12T11:29:34;44.23;40.53;65.22;;
11999;Laerm;40817;51.520;9.954;2023-03-12T11:32:14;44.11;40.80;61.21;;
11999;Laerm;40817;51.520;9.954;2023-03-12T11:34:44;44.13;41.06;61.04;;
11999;Laerm;40817;51.520;9.954;2023-03-12T11:37:20;45.04;41.30;60.94;;
11999;Laerm;40817;51.520;9.954;2023-03-12T11:40:11;44.33;41.53;62.80;;
11999;Laerm;40817;51.520;9.954;2023-03-12T11:42:57;44.28;40.54;59.50;;
11999;Laerm;40817;51.520;9.954;2023-03-12T11:45:44;44.12;40.71;62.46;;
11999;Laerm;40817;51.520;9.954;2023-03-12T11:48:23;46.49;40.98;59.42;;
11999;Laerm;40817;51.520;9.954;2023-03-12T11:51:08;45.08;40.62;62.66;;
11999;Laerm;40817;51.520;9.954;2023-03-12T11:54:31;46.11;41.61;60.35;;
11999;Laerm;40817;51.520;9.954;2023-03-12T11:57:10;45.91;41.61;60.03;;
11999;Laerm;40817;51.520;9.954;2023-03-12T11:59:57;46.11;41.68;63.27;;
11999;Laerm;40817;51.520;9.954;2023-03-12T12:03:00;46.44;41.22;71.78;;
11999;Laerm;40817;51.520;9.954;2023-03-12T12:05:44;44.15;41.30;64.50;;
11999;Laerm;40817;51.520;9.954;2023-03-12T12:08:40;44.37;41.68;60.24;;
11999;Laerm;40817;51.520;9.954;2023-03-12T12:11:18;45.84;41.68;64.17;;
11999;Laerm;40817;51.520;9.954;2023-03-12T12:14:06;45.22;41.82;63.32;;
11999;Laerm;40817;51.520;9.954;2023-03-12T12:16:54;44.11;41.30;61.58;;
11999;Laerm;40817;51.520;9.954;2023-03-12T12:19:48;44.60;41.89;53.54;;
11999;Laerm;40817;51.520;9.954;2023-03-12T12:22:35;50.87;42.16;66.85;;
11999;Laerm;40817;51.520;9.954;2023-03-12T12:25:33;46.70;42.03;63.54;;
11999;Laerm;40817;51.520;9.954;2023-03-12T12:28:53;44.75;41.68;54.53;;
11999;Laerm;40817;51.520;9.954;2023-03-12T12:31:35;44.69;42.16;60.55;;
11999;Laerm;40817;51.520;9.954;2023-03-12T12:34:44;45.89;41.68;66.86;;
11999;Laerm;40817;51.520;9.954;2023-03-12T12:40:29;44.51;39.46;51.71;;
11999;Laerm;40817;51.520;9.954;2023-03-12T12:43:14;48.48;41.75;77.05;;
11999;Laerm;40817;51.520;9.954;2023-03-12T12:45:54;45.18;42.41;65.34;;
11999;Laerm;40817;51.520;9.954;2023-03-12T12:48:27;44.74;41.06;51.18;;
11999;Laerm;40817;51.520;9.954;2023-03-12T12:50:57;44.94;41.75;56.28;;
11999;Laerm;40817;51.520;9.954;2023-03-12T12:53:35;45.14;41.96;69.40;;
11999;Laerm;40817;51.520;9.954;2023-03-12T12:56:16;44.67;42.53;56.31;;
11999;Laerm;40817;51.520;9.954;2023-03-12T12:59:12;44.59;42.35;50.19;;
11999;Laerm;40817;51.520;9.954;2023-03-12T13:01:47;44.69;41.89;51.52;;
11999;Laerm;40817;51.520;9.954;2023-03-12T13:04:24;44.69;42.16;52.84;;
11999;Laerm;40817;51.520;9.954;2023-03-12T13:07:02;44.79;42.09;52.15;;
11999;Laerm;40817;51.520;9.954;2023-03-12T13:09:55;44.49;42.03;49.08;;
11999;Laerm;40817;51.520;9.954;2023-03-12T13:12:29;44.49;41.82;52.30;;
11999;Laerm;40817;51.520;9.954;2023-03-12T13:14:59;44.69;41.68;49.80;;
11999;Laerm;40817;51.520;9.954;2023-03-12T13:17:33;44.81;42.22;56.06;;
11999;Laerm;40817;51.520;9.954;2023-03-12T13:20:15;44.78;42.65;54.17;;
11999;Laerm;40817;51.520;9.954;2023-03-12T13:23:24;44.85;41.30;53.01;;
11999;Laerm;40817;51.520;9.954;2023-03-12T13:26:05;44.78;41.82;50.83;;
11999;Laerm;40817;51.520;9.954;2023-03-12T13:28:54;44.75;42.65;49.95;;
11999;Laerm;40817;51.520;9.954;2023-03-12T13:31:38;44.83;42.35;49.10;;
11999;Laerm;40817;51.520;9.954;2023-03-12T13:34:50;44.90;42.22;50.16;;
11999;Laerm;40817;51.520;9.954;2023-03-12T13:38:00;44.75;42.41;51.52;;
11999;Laerm;40817;51.520;9.954;2023-03-12T13:41:03;45.03;42.35;55.18;;
11999;Laerm;40817;51.520;9.954;2023-03-12T13:43:49;44.87;42.29;50.76;;
11999;Laerm;40817;51.520;9.954;2023-03-12T13:46:39;45.05;42.22;52.21;;
11999;Laerm;40817;51.520;9.954;2023-03-12T13:49:17;45.11;42.16;53.25;;
11999;Laerm;40817;51.520;9.954;2023-03-12T13:52:14;45.12;41.38;50.33;;
11999;Laerm;40817;51.520;9.954;2023-03-12T13:54:48;45.01;42.71;50.25;;
11999;Laerm;40817;51.520;9.954;2023-03-12T13:57:33;45.27;42.74;51.49;;
11999;Laerm;40817;51.520;9.954;2023-03-12T14:00:09;45.16;42.53;50.56;;
11999;Laerm;40817;51.520;9.954;2023-03-12T14:02:48;45.43;42.76;55.83;;
11999;Laerm;40817;51.520;9.954;2023-03-12T14:05:18;45.42;42.71;50.14;;
11999;Laerm;40817;51.520;9.954;2023-03-12T14:08:16;45.06;42.29;58.16;;
11999;Laerm;40817;51.520;9.954;2023-03-12T14:11:17;44.99;41.38;54.39;;
11999;Laerm;40817;51.520;9.954;2023-03-12T14:14:39;45.18;42.53;50.78;;
11999;Laerm;40817;51.520;9.954;2023-03-12T14:17:17;45.11;42.71;54.54;;
11999;Laerm;40817;51.520;9.954;2023-03-12T14:19:50;51.34;43.09;68.75;;
11999;Laerm;40817;51.520;9.954;2023-03-12T14:22:23;45.00;41.96;49.57;;
11999;Laerm;40817;51.520;9.954;2023-03-12T14:24:55;44.83;42.47;53.51;;
11999;Laerm;40817;51.520;9.954;2023-03-12T14:27:28;44.80;42.29;49.08;;
11999;Laerm;40817;51.520;9.954;2023-03-12T14:30:10;45.02;42.53;49.00;;